UAL2077 KEUG-KSFO
Flight info
| Callsign | UAL2077 |
|---|---|
| Flight time | N/A |
| Altitude | 31000 |
| Route | RBG MLBEC BDEGA4 |
| Aircraft | A320/M-VGDW/C |
Departure
| Time | 2026-04-20 02:47 |
|---|---|
| Airport | Eugene Airport (KEUG) |
Arrival
| Time | N/A |
|---|---|
| Airport | San Francisco International Airport (KSFO) |
| Time | Latitude | Longitude | Altitude | Speed | Heading |
|---|---|---|---|---|---|
| 2026-04-20 02:44 | 44.12025 | -123.21376 | 375 ft | 0 kts | 154° |
| 2026-04-20 02:45 | 44.12018 | -123.21329 | 375 ft | 10 kts | 68° |
| 2026-04-20 02:45 | 44.12076 | -123.21349 | 375 ft | 23 kts | 306° |
| 2026-04-20 02:45 | 44.12187 | -123.21489 | 374 ft | 21 kts | 323° |
| 2026-04-20 02:45 | 44.12337 | -123.21609 | 373 ft | 31 kts | 326° |
| 2026-04-20 02:46 | 44.12543 | -123.21710 | 372 ft | 35 kts | 358° |
| 2026-04-20 02:46 | 44.12780 | -123.21724 | 371 ft | 30 kts | 345° |
| 2026-04-20 02:46 | 44.12807 | -123.21890 | 372 ft | 18 kts | 214° |
| 2026-04-20 02:46 | 44.12479 | -123.21900 | 372 ft | 84 kts | 178° |
| 2026-04-20 02:47 | 44.11652 | -123.21889 | 381 ft | 152 kts | 181° |
| 2026-04-20 02:47 | 44.10467 | -123.21912 | 820 ft | 186 kts | 180° |
| 2026-04-20 02:47 | 44.09110 | -123.21940 | 1486 ft | 216 kts | 184° |
| 2026-04-20 02:47 | 44.07462 | -123.22140 | 1964 ft | 250 kts | 187° |
| 2026-04-20 02:48 | 44.05657 | -123.22420 | 2708 ft | 269 kts | 187° |
| 2026-04-20 02:48 | 44.03817 | -123.22721 | 3438 ft | 270 kts | 186° |
| 2026-04-20 02:48 | 44.01945 | -123.23025 | 4170 ft | 273 kts | 185° |
| 2026-04-20 02:48 | 44.00042 | -123.23332 | 4908 ft | 276 kts | 185° |
| 2026-04-20 02:49 | 43.98142 | -123.23636 | 5634 ft | 273 kts | 184° |
| 2026-04-20 02:49 | 43.96268 | -123.23929 | 6368 ft | 270 kts | 184° |
| 2026-04-20 02:49 | 43.94406 | -123.24213 | 7072 ft | 269 kts | 183° |
| 2026-04-20 02:49 | 43.92550 | -123.24491 | 7778 ft | 267 kts | 183° |
| 2026-04-20 02:50 | 43.90711 | -123.24763 | 8518 ft | 266 kts | 182° |
| 2026-04-20 02:50 | 43.88877 | -123.25035 | 9263 ft | 264 kts | 182° |
| 2026-04-20 02:50 | 43.87055 | -123.25298 | 9996 ft | 274 kts | 182° |
| 2026-04-20 02:50 | 43.85094 | -123.25569 | 10628 ft | 293 kts | 182° |
| 2026-04-20 02:51 | 43.83004 | -123.25854 | 11257 ft | 311 kts | 183° |
| 2026-04-20 02:51 | 43.80794 | -123.26157 | 11900 ft | 328 kts | 183° |
| 2026-04-20 02:51 | 43.78473 | -123.26482 | 12539 ft | 343 kts | 184° |
| 2026-04-20 02:51 | 43.76049 | -123.26824 | 13207 ft | 357 kts | 184° |
| 2026-04-20 02:52 | 43.73529 | -123.27185 | 13858 ft | 370 kts | 184° |
| 2026-04-20 02:52 | 43.70927 | -123.27561 | 14453 ft | 382 kts | 184° |
| 2026-04-20 02:52 | 43.68289 | -123.27943 | 15055 ft | 392 kts | 185° |
| 2026-04-20 02:52 | 43.65542 | -123.28340 | 15673 ft | 401 kts | 185° |
| 2026-04-20 02:53 | 43.62746 | -123.28748 | 16305 ft | 409 kts | 185° |
| 2026-04-20 02:53 | 43.59886 | -123.29168 | 16961 ft | 416 kts | 185° |
| 2026-04-20 02:53 | 43.56985 | -123.29594 | 17627 ft | 422 kts | 185° |
| 2026-04-20 02:53 | 43.54045 | -123.30025 | 18275 ft | 428 kts | 185° |
| 2026-04-20 02:54 | 43.51071 | -123.30462 | 18854 ft | 432 kts | 185° |
| 2026-04-20 02:54 | 43.48063 | -123.30902 | 19450 ft | 436 kts | 185° |
| 2026-04-20 02:54 | 43.45075 | -123.31338 | 20050 ft | 440 kts | 185° |
| 2026-04-20 02:54 | 43.43394 | -123.31583 | 20391 ft | 441 kts | 185° |